Barcelos, Brazil
Current Conditions -  °F | °C
As of 3:00 PM on Thursday 30 Oct 2014 (Local Time) from SBTF Reporting Station
Scattered Clouds Scattered Clouds  
Wind Chill: 95°   Ceiling: Unl
Heat Index: 110°   Visibility: 6mi
Dew Point: 77°   Wind: 7mph
Humidity: 56%   Direction: 10°N
Pressure: 29.68"   Gusts: NA
Location:  0.97°S, 62.94°W
Report Text: SBTF 301900Z 01006KT 9999 SCT020 35/25 Q1005
Loading
Personal Weather Stations






























Interactive Weather Map
Tropical Storm Tracking
New forecast layout! Learn more

10-Day Weather Forecast

Advertisements
Track Severe Weather on mobile